Time;durP1;ratioP1;P1;durP2;ratioP2;P2;SDS_P1;SDS_P2;PMS_P1;PMS_P2;Temp;Humidity;BMP_temperature;BMP_pressure;BME280_temperature;BME280_humidity;BME280_pressure;Samples;Min_cycle;Max_cycle;Signal;HPM_P1;HPM_P2
2022/12/31 00:00:47;;;;;;;0.60;0.60;;;12.00;91.60;;;;;;5036793;28;20281;-85
2022/12/31 00:03:14;;;;;;;0.70;0.70;;;12.00;91.20;;;;;;5034948;28;20218;-85
2022/12/31 00:05:41;;;;;;;1.60;0.77;;;12.30;90.80;;;;;;5036112;28;20668;-85
2022/12/31 00:08:08;;;;;;;0.70;0.70;;;12.40;90.60;;;;;;5031508;28;20236;-85
2022/12/31 00:10:40;;;;;;;0.70;0.70;;;12.30;90.80;;;;;;5033103;28;20234;-85
2022/12/31 00:13:08;;;;;;;0.80;0.70;;;12.20;90.80;;;;;;5035788;28;20203;-85
2022/12/31 00:15:35;;;;;;;0.50;0.50;;;12.30;90.80;;;;;;5034146;28;20198;-85
2022/12/31 00:18:02;;;;;;;0.57;0.57;;;12.30;90.80;;;;;;5041430;28;20565;-85
2022/12/31 00:20:29;;;;;;;0.50;0.50;;;12.40;90.90;;;;;;5043223;28;20206;-85
2022/12/31 00:22:55;;;;;;;0.70;0.70;;;12.40;90.40;;;;;;5042717;28;20230;-85
2022/12/31 00:25:22;;;;;;;0.60;0.60;;;12.50;90.20;;;;;;5037681;28;20763;-85
2022/12/31 00:27:51;;;;;;;0.57;0.50;;;12.40;90.40;;;;;;5045894;28;20201;-85
2022/12/31 00:30:17;;;;;;;0.50;0.50;;;12.30;90.80;;;;;;5040503;28;20209;-85
2022/12/31 00:32:44;;;;;;;0.65;0.50;;;12.40;90.40;;;;;;5047127;28;20201;-85
2022/12/31 00:35:11;;;;;;;0.80;0.60;;;12.50;90.10;;;;;;5036082;28;20673;-85
2022/12/31 00:37:38;;;;;;;0.40;0.40;;;12.50;90.80;;;;;;5040616;28;20209;-85
2022/12/31 00:40:06;;;;;;;0.52;0.50;;;12.50;90.60;;;;;;5043425;28;20198;-85
2022/12/31 00:42:33;;;;;;;0.57;0.57;;;12.50;90.50;;;;;;5035286;28;20217;-85
2022/12/31 00:45:01;;;;;;;1.40;0.77;;;12.60;90.40;;;;;;5038041;28;20225;-85
2022/12/31 00:47:28;;;;;;;0.52;0.52;;;12.50;90.50;;;;;;5037133;28;20194;-85
2022/12/31 00:49:55;;;;;;;0.60;0.60;;;12.60;90.20;;;;;;5044582;28;20230;-85
2022/12/31 00:52:22;;;;;;;0.73;0.60;;;12.70;89.30;;;;;;5041987;28;20204;-85
2022/12/31 00:54:49;;;;;;;0.63;0.50;;;12.80;88.90;;;;;;5034743;28;20202;-85
2022/12/31 00:57:16;;;;;;;0.68;0.45;;;12.90;88.30;;;;;;5041586;28;20592;-85
2022/12/31 00:59:42;;;;;;;0.73;0.63;;;12.90;87.70;;;;;;5033081;28;20203;-85
2022/12/31 01:02:11;;;;;;;0.40;0.40;;;12.90;87.90;;;;;;5042978;28;20205;-85
2022/12/31 01:04:38;;;;;;;0.52;0.50;;;12.90;87.90;;;;;;5049316;28;20229;-85
2022/12/31 01:07:04;;;;;;;1.25;0.60;;;12.90;88.20;;;;;;5036971;28;20207;-85
2022/12/31 01:09:31;;;;;;;0.50;0.50;;;13.10;86.60;;;;;;5041558;28;20776;-85
2022/12/31 01:11:58;;;;;;;0.50;0.50;;;13.10;86.60;;;;;;5043044;28;20571;-85
2022/12/31 01:14:25;;;;;;;0.60;0.60;;;13.20;86.30;;;;;;5035607;28;20559;-85
2022/12/31 01:16:53;;;;;;;1.20;0.90;;;13.10;87.10;;;;;;5034800;28;20199;-85
2022/12/31 01:19:24;;;;;;;0.60;0.60;;;13.00;87.30;;;;;;5045642;28;20638;-85
2022/12/31 01:21:52;;;;;;;0.40;0.40;;;13.10;87.50;;;;;;5039327;28;20202;-85
2022/12/31 01:24:19;;;;;;;0.90;0.68;;;13.10;87.40;;;;;;5037457;28;20234;-85
2022/12/31 01:26:47;;;;;;;0.68;0.60;;;13.20;86.50;;;;;;5042789;28;20203;-85
2022/12/31 01:29:15;;;;;;;0.45;0.45;;;13.30;85.50;;;;;;5036454;28;20202;-85
2022/12/31 01:31:42;;;;;;;0.50;0.50;;;13.30;85.20;;;;;;5037584;28;20205;-85
2022/12/31 01:34:09;;;;;;;1.35;0.60;;;13.30;85.70;;;;;;5032783;28;20214;-85
2022/12/31 01:36:38;;;;;;;0.98;0.50;;;13.20;86.10;;;;;;5040875;28;20753;-85
2022/12/31 01:39:07;;;;;;;0.50;0.50;;;13.20;87.80;;;;;;5038505;28;20213;-85
2022/12/31 01:41:43;;;;;;;0.77;0.43;;;13.10;87.20;;;;;;5043642;28;20203;-85
2022/12/31 01:44:50;;;;;;;0.47;0.47;;;13.20;87.10;;;;;;5035117;28;20305;-85
2022/12/31 01:47:22;;;;;;;1.17;0.65;;;13.20;86.30;;;;;;5047307;28;20737;-85
2022/12/31 01:49:54;;;;;;;0.50;0.50;;;13.20;86.00;;;;;;5042130;28;20202;-85
2022/12/31 01:52:27;;;;;;;0.52;0.52;;;13.30;86.00;;;;;;5045582;28;20677;-85
2022/12/31 01:55:01;;;;;;;0.47;0.47;;;13.30;85.70;;;;;;5051451;28;20212;-85
2022/12/31 01:57:29;;;;;;;0.98;0.52;;;13.30;85.60;;;;;;5043898;28;20209;-85
2022/12/31 01:59:58;;;;;;;0.47;0.47;;;13.20;86.60;;;;;;5049585;28;20210;-85
2022/12/31 02:02:26;;;;;;;0.50;0.50;;;13.20;86.30;;;;;;5042073;28;20211;-85
2022/12/31 02:07:54;;;;;;;0.45;0.43;;;13.40;84.80;;;;;;5042087;28;20256;-85
2022/12/31 02:10:22;;;;;;;0.60;0.60;;;13.40;84.50;;;;;;5047656;28;20337;-85
2022/12/31 02:12:58;;;;;;;0.45;0.40;;;13.50;83.60;;;;;;5053277;28;20209;-85
2022/12/31 02:15:36;;;;;;;0.45;0.45;;;13.50;82.80;;;;;;5044323;28;20810;-85
2022/12/31 02:18:12;;;;;;;0.50;0.50;;;13.50;82.40;;;;;;5054202;28;20255;-85
2022/12/31 02:21:12;;;;;;;0.57;0.55;;;13.40;82.70;;;;;;5052147;28;20201;-85
2022/12/31 02:24:02;;;;;;;0.38;0.38;;;13.30;83.70;;;;;;5035635;28;20253;-85
2022/12/31 02:26:53;;;;;;;1.95;0.77;;;13.10;84.90;;;;;;5044802;28;20198;-85
2022/12/31 02:29:58;;;;;;;0.98;0.60;;;13.20;83.80;;;;;;5039508;28;20202;-85
2022/12/31 02:32:39;;;;;;;0.63;0.60;;;13.10;84.10;;;;;;5047493;28;20206;-85
2022/12/31 02:35:11;;;;;;;0.40;0.40;;;13.10;84.20;;;;;;5053026;28;20780;-85
2022/12/31 02:37:41;;;;;;;0.60;0.50;;;13.10;84.40;;;;;;5045610;28;20210;-85
2022/12/31 02:40:14;;;;;;;0.65;0.60;;;13.30;82.90;;;;;;5049165;28;20569;-85
2022/12/31 02:42:45;;;;;;;1.10;0.75;;;13.40;82.00;;;;;;5042345;28;20205;-85
2022/12/31 02:45:14;;;;;;;0.73;0.65;;;13.30;82.20;;;;;;5053105;28;20226;-85
2022/12/31 02:48:04;;;;;;;0.63;0.63;;;13.30;81.90;;;;;;5047040;28;20242;-85
2022/12/31 02:50:54;;;;;;;0.70;0.70;;;13.40;82.00;;;;;;5043607;28;20204;-85
2022/12/31 02:53:43;;;;;;;0.50;0.50;;;13.30;82.30;;;;;;5052861;28;20285;-85
2022/12/31 02:56:17;;;;;;;0.45;0.45;;;13.40;81.00;;;;;;5052555;28;20565;-85
2022/12/31 03:04:36;;;;;;;0.45;0.45;;;13.50;80.40;;;;;;5035662;28;20705;-85
2022/12/31 03:07:07;;;;;;;0.50;0.50;;;13.40;80.60;;;;;;5046685;28;20216;-85
2022/12/31 03:09:34;;;;;;;0.65;0.55;;;13.30;81.60;;;;;;5044647;28;20230;-86
2022/12/31 03:14:47;;;;;;;0.68;0.50;;;13.30;80.90;;;;;;5033325;28;20703;-85
2022/12/31 03:17:14;;;;;;;0.43;0.43;;;13.40;81.10;;;;;;5049021;28;20328;-85
2022/12/31 03:22:28;;;;;;;0.50;0.50;;;13.40;80.10;;;;;;5041505;28;20781;-85
2022/12/31 03:27:42;;;;;;;0.65;0.60;;;13.50;79.30;;;;;;5039361;28;20275;-85
2022/12/31 03:30:10;;;;;;;0.50;0.50;;;13.60;77.60;;;;;;5044514;28;20208;-85
2022/12/31 03:32:43;;;;;;;0.50;0.50;;;13.70;76.40;;;;;;5043673;28;20289;-85
2022/12/31 03:35:30;;;;;;;0.40;0.40;;;13.80;76.40;;;;;;5034417;28;20289;-85
2022/12/31 03:37:57;;;;;;;0.40;0.40;;;13.80;76.40;;;;;;5041965;28;20210;-85
2022/12/31 03:40:26;;;;;;;0.50;0.50;;;13.80;76.40;;;;;;5037405;28;20206;-85
2022/12/31 03:42:53;;;;;;;0.85;0.40;;;14.00;74.30;;;;;;5050956;28;20658;-85
2022/12/31 03:45:20;;;;;;;0.60;0.60;;;14.00;72.80;;;;;;5050885;28;20233;-85
2022/12/31 03:47:48;;;;;;;0.40;0.40;;;14.00;72.20;;;;;;5042811;28;20208;-85
2022/12/31 03:50:16;;;;;;;0.50;0.50;;;14.00;72.60;;;;;;5040341;28;20208;-85
2022/12/31 03:52:45;;;;;;;0.52;0.52;;;13.90;73.70;;;;;;5038090;28;20202;-85
2022/12/31 03:55:12;;;;;;;0.45;0.45;;;13.90;73.30;;;;;;5041214;28;20199;-85
2022/12/31 03:57:39;;;;;;;0.70;0.70;;;13.80;73.50;;;;;;5047516;28;20201;-85
2022/12/31 04:00:10;;;;;;;0.60;0.60;;;13.80;73.60;;;;;;5039887;28;20575;-85
2022/12/31 04:02:37;;;;;;;0.60;0.60;;;13.70;75.10;;;;;;5040281;28;20423;-85
2022/12/31 04:05:04;;;;;;;0.50;0.50;;;13.80;74.90;;;;;;5042958;28;20229;-85
2022/12/31 04:07:31;;;;;;;0.50;0.50;;;13.80;75.30;;;;;;5044075;28;20198;-85
2022/12/31 04:09:59;;;;;;;0.60;0.60;;;13.70;76.00;;;;;;5036447;28;20230;-85
2022/12/31 04:12:27;;;;;;;0.50;0.50;;;13.70;76.40;;;;;;5036345;28;20195;-85
2022/12/31 04:14:53;;;;;;;0.50;0.50;;;13.70;76.40;;;;;;5041506;28;20670;-85
2022/12/31 04:17:20;;;;;;;0.55;0.55;;;13.80;76.40;;;;;;5041935;28;20194;-85
2022/12/31 04:19:47;;;;;;;0.40;0.40;;;13.80;75.70;;;;;;5039632;28;20209;-85
2022/12/31 04:22:15;;;;;;;0.50;0.50;;;13.80;75.20;;;;;;5039344;28;20199;-85
2022/12/31 04:24:43;;;;;;;0.88;0.52;;;13.80;75.10;;;;;;5041565;28;20261;-85
2022/12/31 04:27:11;;;;;;;0.70;0.70;;;14.00;74.70;;;;;;5042266;28;20194;-85
2022/12/31 04:29:39;;;;;;;0.70;0.70;;;14.10;69.70;;;;;;5041494;28;20202;-85
2022/12/31 04:32:07;;;;;;;0.60;0.60;;;14.30;66.90;;;;;;5043000;28;20561;-85
2022/12/31 04:34:34;;;;;;;0.70;0.52;;;14.20;68.40;;;;;;5042738;28;20198;-85
2022/12/31 04:37:01;;;;;;;0.60;0.60;;;14.20;67.30;;;;;;5039212;28;20208;-85
2022/12/31 04:39:28;;;;;;;0.60;0.60;;;14.30;66.70;;;;;;5038442;28;20933;-85
2022/12/31 04:41:55;;;;;;;0.73;0.73;;;14.40;65.30;;;;;;5045654;28;20204;-85
2022/12/31 04:44:24;;;;;;;0.65;0.60;;;14.50;64.10;;;;;;5040770;28;20563;-85
2022/12/31 04:46:50;;;;;;;0.40;0.40;;;14.40;64.40;;;;;;5042075;28;20195;-85
2022/12/31 04:49:17;;;;;;;0.60;0.60;;;14.30;65.30;;;;;;5044955;28;20639;-85
2022/12/31 04:51:44;;;;;;;0.85;0.50;;;14.30;66.10;;;;;;5043452;28;20553;-85
2022/12/31 04:54:11;;;;;;;0.75;0.50;;;14.30;65.00;;;;;;5038886;28;20202;-85
2022/12/31 04:56:38;;;;;;;0.57;0.57;;;14.40;64.00;;;;;;5037613;28;20219;-85
2022/12/31 04:59:06;;;;;;;0.55;0.55;;;14.50;61.70;;;;;;5034335;28;20577;-85
2022/12/31 05:01:35;;;;;;;0.52;0.47;;;14.60;61.50;;;;;;5045719;28;20201;-85
2022/12/31 05:04:02;;;;;;;0.50;0.50;;;14.60;62.60;;;;;;5041997;28;20202;-85
2022/12/31 05:06:29;;;;;;;1.60;0.70;;;14.60;61.80;;;;;;5041106;28;20217;-85
2022/12/31 05:08:55;;;;;;;0.40;0.40;;;14.60;62.20;;;;;;5034390;28;20207;-85
2022/12/31 05:11:22;;;;;;;0.73;0.73;;;14.70;62.10;;;;;;4996299;28;20779;-85
2022/12/31 05:13:49;;;;;;;0.52;0.52;;;14.60;62.20;;;;;;5001724;28;20214;-85
2022/12/31 05:16:16;;;;;;;0.47;0.47;;;14.70;61.60;;;;;;5000218;28;20585;-85
2022/12/31 05:18:44;;;;;;;0.60;0.60;;;14.70;61.50;;;;;;5005501;28;20210;-85
2022/12/31 05:21:18;;;;;;;0.60;0.60;;;14.70;61.00;;;;;;5003914;28;20223;-85
2022/12/31 05:23:45;;;;;;;0.55;0.50;;;14.70;61.50;;;;;;5010382;28;20223;-85
2022/12/31 05:26:12;;;;;;;0.60;0.60;;;14.80;60.60;;;;;;4996431;28;20228;-85
2022/12/31 05:28:39;;;;;;;0.65;0.57;;;14.70;61.50;;;;;;5008618;28;20210;-85
2022/12/31 05:31:05;;;;;;;0.40;0.40;;;14.60;62.30;;;;;;5010891;28;20298;-85
2022/12/31 05:33:32;;;;;;;0.55;0.55;;;14.40;63.30;;;;;;5008417;28;20696;-85
2022/12/31 05:36:01;;;;;;;0.55;0.45;;;14.40;64.90;;;;;;5010300;28;20199;-85
2022/12/31 05:38:27;;;;;;;0.88;0.68;;;14.30;65.70;;;;;;5002509;28;20231;-85
2022/12/31 05:41:02;;;;;;;0.98;0.60;;;14.30;67.80;;;;;;5010848;28;20560;-85
2022/12/31 05:43:29;;;;;;;0.68;0.68;;;14.30;65.60;;;;;;5005741;28;20203;-85
2022/12/31 05:45:56;;;;;;;0.98;0.60;;;14.30;66.10;;;;;;5006048;28;20706;-85
2022/12/31 05:48:23;;;;;;;1.00;0.65;;;14.30;66.90;;;;;;5004528;28;20196;-85
2022/12/31 05:50:50;;;;;;;0.90;0.50;;;14.20;67.30;;;;;;5010572;28;20207;-86
2022/12/31 05:53:18;;;;;;;0.88;0.68;;;14.20;66.70;;;;;;5002011;28;20207;-85
2022/12/31 05:55:47;;;;;;;0.68;0.57;;;14.30;66.10;;;;;;5004262;28;20262;-85
2022/12/31 05:58:14;;;;;;;0.50;0.50;;;14.20;67.70;;;;;;5008348;28;20663;-85
2022/12/31 06:00:41;;;;;;;0.70;0.70;;;14.10;67.70;;;;;;5000506;28;20222;-85
2022/12/31 06:03:08;;;;;;;0.80;0.80;;;14.10;68.00;;;;;;5008913;28;20651;-85
2022/12/31 06:05:35;;;;;;;0.60;0.60;;;13.90;70.00;;;;;;5004483;28;20224;-85
2022/12/31 06:08:02;;;;;;;0.70;0.70;;;13.70;73.10;;;;;;4998310;28;20222;-85
2022/12/31 06:10:30;;;;;;;0.60;0.60;;;13.50;76.20;;;;;;5036562;28;20241;-85
2022/12/31 06:12:57;;;;;;;0.70;0.70;;;13.30;76.20;;;;;;5037661;28;20203;-85
2022/12/31 06:15:23;;;;;;;0.63;0.60;;;13.20;77.80;;;;;;5051705;28;20669;-85
2022/12/31 06:17:50;;;;;;;0.60;0.60;;;13.10;79.00;;;;;;5035897;28;20304;-85
2022/12/31 06:20:17;;;;;;;0.80;0.80;;;13.00;79.90;;;;;;5042183;28;20198;-85
2022/12/31 06:22:44;;;;;;;0.60;0.60;;;12.80;81.00;;;;;;5036830;28;20230;-85
2022/12/31 06:25:12;;;;;;;2.20;0.70;;;12.90;81.20;;;;;;5045820;28;20705;-85
2022/12/31 06:27:40;;;;;;;0.60;0.60;;;12.90;81.80;;;;;;5048358;28;20232;-85
2022/12/31 06:30:09;;;;;;;1.85;0.50;;;12.80;81.00;;;;;;5042416;28;20202;-85
2022/12/31 06:32:36;;;;;;;1.20;0.52;;;12.80;81.50;;;;;;5040769;28;20202;-85
2022/12/31 06:35:03;;;;;;;0.60;0.60;;;12.70;82.20;;;;;;5040251;28;20205;-85
2022/12/31 06:37:29;;;;;;;0.80;0.80;;;12.70;82.90;;;;;;5040328;28;20209;-85
2022/12/31 06:39:56;;;;;;;0.85;0.60;;;12.60;83.00;;;;;;5043677;28;20209;-85
2022/12/31 06:42:23;;;;;;;0.90;0.90;;;12.60;83.40;;;;;;5045078;28;20586;-85
2022/12/31 06:44:52;;;;;;;1.42;0.68;;;12.60;83.70;;;;;;5050479;28;20581;-85
2022/12/31 06:47:19;;;;;;;0.75;0.75;;;12.60;83.90;;;;;;5049115;28;20206;-85
2022/12/31 06:49:45;;;;;;;0.70;0.70;;;12.60;84.00;;;;;;5036805;28;20198;-85
2022/12/31 06:52:12;;;;;;;0.60;0.60;;;12.60;84.30;;;;;;5047337;28;20647;-85
2022/12/31 06:54:39;;;;;;;0.80;0.80;;;12.60;84.50;;;;;;5041374;28;20217;-85
2022/12/31 06:57:08;;;;;;;1.13;0.90;;;12.50;86.10;;;;;;5048321;28;20206;-85
2022/12/31 06:59:36;;;;;;;0.60;0.60;;;12.50;87.90;;;;;;5052418;28;20210;-85
2022/12/31 07:02:16;;;;;;;0.80;0.80;;;12.50;90.00;;;;;;5044710;28;20293;-84
2022/12/31 07:05:13;;;;;;;1.00;0.75;;;12.40;90.10;;;;;;5037345;28;20204;-85
2022/12/31 07:07:49;;;;;;;0.85;0.85;;;12.30;90.40;;;;;;5040344;28;20251;-85
2022/12/31 07:10:26;;;;;;;1.73;1.40;;;12.30;90.80;;;;;;5052451;28;20629;-85
2022/12/31 07:13:06;;;;;;;2.10;1.90;;;12.30;90.80;;;;;;5046839;28;20194;-85
2022/12/31 07:15:47;;;;;;;1.40;1.30;;;12.20;90.80;;;;;;5047555;28;20682;-85
2022/12/31 07:18:31;;;;;;;1.33;1.23;;;12.30;90.80;;;;;;5040961;28;20579;-85
2022/12/31 07:20:58;;;;;;;0.95;0.90;;;12.40;90.30;;;;;;5041445;28;20294;-85
2022/12/31 07:23:25;;;;;;;1.10;1.00;;;12.40;90.00;;;;;;5038867;28;20678;-85
2022/12/31 07:26:00;;;;;;;1.58;1.15;;;12.50;89.80;;;;;;5041577;28;20230;-85
2022/12/31 07:28:42;;;;;;;1.30;0.98;;;12.50;88.90;;;;;;5052400;28;20308;-85
2022/12/31 07:31:16;;;;;;;1.35;0.88;;;12.50;87.90;;;;;;5041104;28;20197;-85
2022/12/31 07:33:57;;;;;;;1.15;1.05;;;12.50;87.90;;;;;;5042766;28;20208;-85
2022/12/31 07:36:50;;;;;;;1.02;0.93;;;12.50;87.70;;;;;;5037081;28;20651;-85
2022/12/31 07:39:28;;;;;;;0.98;0.90;;;12.50;87.70;;;;;;5036190;28;20634;-85
2022/12/31 07:42:02;;;;;;;0.70;0.70;;;12.50;86.50;;;;;;5036417;28;20542;-85
2022/12/31 07:44:44;;;;;;;0.90;0.90;;;12.60;84.00;;;;;;5047711;28;20204;-85
2022/12/31 07:47:20;;;;;;;0.80;0.70;;;12.60;80.50;;;;;;5042380;28;20283;-85
2022/12/31 07:49:50;;;;;;;1.08;0.90;;;12.60;80.40;;;;;;5039672;28;20787;-85
2022/12/31 07:52:17;;;;;;;1.10;0.65;;;12.70;80.70;;;;;;5044184;28;20202;-85
2022/12/31 07:54:44;;;;;;;1.90;0.80;;;12.70;79.60;;;;;;5046117;28;20264;-85
2022/12/31 07:57:13;;;;;;;0.70;0.70;;;12.70;79.80;;;;;;5035297;28;20213;-85
2022/12/31 07:59:53;;;;;;;1.30;0.75;;;12.60;79.20;;;;;;5040186;28;20203;-85
2022/12/31 08:02:32;;;;;;;0.70;0.70;;;12.60;79.00;;;;;;5043156;28;20194;-85
2022/12/31 08:05:07;;;;;;;1.83;0.90;;;12.60;78.90;;;;;;5045176;28;20210;-85
2022/12/31 08:07:41;;;;;;;0.93;0.93;;;12.70;78.30;;;;;;5044583;28;20194;-85
2022/12/31 08:10:14;;;;;;;0.70;0.70;;;12.80;75.80;;;;;;5042367;28;20241;-85
2022/12/31 08:12:42;;;;;;;0.75;0.75;;;12.90;75.80;;;;;;5047933;28;20200;-85
2022/12/31 08:15:13;;;;;;;0.70;0.70;;;12.90;75.80;;;;;;5041775;28;20218;-85
2022/12/31 08:17:40;;;;;;;1.02;0.93;;;12.90;75.80;;;;;;5038303;28;20213;-85
2022/12/31 08:20:13;;;;;;;1.42;0.90;;;12.80;75.70;;;;;;5040287;28;20201;-85
2022/12/31 08:22:58;;;;;;;1.70;0.90;;;12.90;75.80;;;;;;5041791;28;20241;-85
2022/12/31 08:25:35;;;;;;;1.33;1.08;;;12.90;75.80;;;;;;5035901;28;20239;-85
2022/12/31 08:28:12;;;;;;;2.30;1.05;;;13.00;75.80;;;;;;5035655;28;20200;-85
2022/12/31 08:30:49;;;;;;;0.70;0.70;;;13.00;75.80;;;;;;5039164;28;20197;-85
2022/12/31 08:33:23;;;;;;;0.80;0.80;;;13.00;75.90;;;;;;5039173;28;20216;-85
2022/12/31 08:36:08;;;;;;;1.73;0.90;;;13.00;74.20;;;;;;5042303;28;20202;-85
2022/12/31 08:38:43;;;;;;;0.93;0.93;;;13.10;73.50;;;;;;5043749;28;20206;-85
2022/12/31 08:41:18;;;;;;;1.23;0.77;;;13.10;71.00;;;;;;5046048;28;20243;-85
2022/12/31 08:43:53;;;;;;;0.98;0.98;;;13.20;70.50;;;;;;5040091;28;20217;-85
2022/12/31 08:46:26;;;;;;;0.70;0.70;;;13.20;68.90;;;;;;5045673;28;20225;-85
2022/12/31 08:48:53;;;;;;;1.38;0.70;;;13.30;63.10;;;;;;5040420;28;20232;-85
2022/12/31 08:51:23;;;;;;;0.80;0.80;;;13.30;63.40;;;;;;5037158;28;20202;-85
2022/12/31 08:53:52;;;;;;;0.80;0.80;;;13.40;63.10;;;;;;5042379;28;20232;-85
2022/12/31 08:56:27;;;;;;;1.67;0.90;;;13.60;64.80;;;;;;5045084;28;20194;-85
2022/12/31 08:59:06;;;;;;;0.85;0.85;;;14.20;63.00;;;;;;5046464;28;20654;-85
2022/12/31 09:01:40;;;;;;;0.95;0.90;;;15.10;51.50;;;;;;5043810;28;20658;-85
2022/12/31 09:04:16;;;;;;;0.88;0.85;;;16.30;42.80;;;;;;5047572;28;21124;-86
2022/12/31 09:06:55;;;;;;;1.85;1.00;;;17.30;36.60;;;;;;5038964;28;20225;-86
2022/12/31 09:09:35;;;;;;;0.80;0.80;;;17.80;34.70;;;;;;5044474;28;20253;-86
2022/12/31 09:12:11;;;;;;;0.70;0.70;;;17.80;30.20;;;;;;5043829;28;20194;-86
2022/12/31 09:14:45;;;;;;;0.68;0.68;;;17.80;30.20;;;;;;5047184;28;20198;-83
2022/12/31 09:17:39;;;;;;;1.58;1.00;;;18.10;30.30;;;;;;5042425;28;20207;-84
2022/12/31 09:20:13;;;;;;;0.90;0.90;;;18.10;29.70;;;;;;5042191;28;20584;-84
2022/12/31 09:22:42;;;;;;;0.88;0.80;;;17.70;30.10;;;;;;5044845;28;20229;-83
2022/12/31 09:25:14;;;;;;;0.90;0.90;;;17.40;29.90;;;;;;5048240;28;20202;-83
2022/12/31 09:27:50;;;;;;;0.90;0.90;;;17.10;29.60;;;;;;5049755;28;20229;-83
2022/12/31 09:30:20;;;;;;;1.58;0.80;;;17.00;29.60;;;;;;5037586;28;20212;-83
2022/12/31 09:32:53;;;;;;;1.00;1.00;;;16.80;32.10;;;;;;5044429;28;20209;-83
2022/12/31 09:35:30;;;;;;;0.80;0.80;;;16.70;33.00;;;;;;5038428;28;20964;-83
2022/12/31 09:38:04;;;;;;;1.60;0.93;;;16.70;32.10;;;;;;5046501;28;20212;-86
2022/12/31 09:41:10;;;;;;;1.33;0.90;;;16.50;32.60;;;;;;5042034;28;20584;-85
2022/12/31 09:44:27;;;;;;;0.85;0.85;;;16.50;31.20;;;;;;5045305;28;20206;-86
2022/12/31 09:47:41;;;;;;;0.95;0.85;;;16.40;31.70;;;;;;5041365;28;20233;-86
2022/12/31 09:50:44;;;;;;;0.88;0.88;;;16.40;31.40;;;;;;5043766;28;20210;-86
2022/12/31 09:53:29;;;;;;;1.63;1.02;;;16.20;31.50;;;;;;5041068;28;20204;-86
2022/12/31 09:56:02;;;;;;;1.48;0.90;;;16.60;31.80;;;;;;5047603;28;20213;-86
2022/12/31 09:58:41;;;;;;;1.02;1.02;;;16.90;29.50;;;;;;5038332;28;20190;-86
2022/12/31 10:01:21;;;;;;;0.70;0.70;;;17.20;29.70;;;;;;5044059;28;20209;-83
2022/12/31 10:04:21;;;;;;;0.63;0.63;;;17.80;27.50;;;;;;5042528;28;20199;-83
2022/12/31 10:06:57;;;;;;;1.00;1.00;;;18.10;26.90;;;;;;5043218;28;20225;-84
2022/12/31 10:09:42;;;;;;;0.90;0.90;;;18.20;27.70;;;;;;5036841;28;20234;-84
2022/12/31 10:12:35;;;;;;;0.93;0.70;;;18.40;27.00;;;;;;5049420;28;20201;-83
2022/12/31 10:15:33;;;;;;;0.80;0.80;;;18.70;24.00;;;;;;5042244;28;20206;-84
2022/12/31 10:18:12;;;;;;;0.93;0.90;;;19.00;22.60;;;;;;5045038;28;20226;-84
2022/12/31 10:20:57;;;;;;;0.73;0.73;;;19.00;22.70;;;;;;5045333;28;20608;-84
2022/12/31 10:23:47;;;;;;;0.85;0.85;;;19.20;24.00;;;;;;5039910;28;20221;-83
2022/12/31 10:26:30;;;;;;;0.70;0.70;;;19.60;21.70;;;;;;5042566;28;20226;-83
2022/12/31 10:29:11;;;;;;;0.90;0.82;;;19.90;21.30;;;;;;5040258;28;20206;-84
2022/12/31 10:31:43;;;;;;;0.90;0.90;;;20.10;22.30;;;;;;5043181;28;20577;-84
2022/12/31 10:34:15;;;;;;;0.80;0.80;;;20.00;22.40;;;;;;5040638;28;20203;-83
2022/12/31 10:36:57;;;;;;;1.70;0.80;;;19.80;21.00;;;;;;5045582;28;20212;-83
2022/12/31 10:39:38;;;;;;;1.70;0.85;;;19.50;21.70;;;;;;5032902;28;20563;-83
2022/12/31 10:42:29;;;;;;;1.00;1.00;;;19.20;22.60;;;;;;5041673;28;20217;-84
2022/12/31 10:45:25;;;;;;;1.00;0.93;;;19.00;22.60;;;;;;5038087;28;20546;-84
2022/12/31 10:48:34;;;;;;;1.75;0.80;;;18.80;23.60;;;;;;5044764;28;20234;-83
2022/12/31 10:51:34;;;;;;;0.90;0.90;;;18.60;23.80;;;;;;5036440;28;20194;-83
2022/12/31 10:54:21;;;;;;;0.73;0.73;;;18.40;24.90;;;;;;5042992;28;20212;-84
2022/12/31 10:57:18;;;;;;;1.88;1.02;;;18.30;25.10;;;;;;5040826;28;20206;-83
2022/12/31 11:00:16;;;;;;;0.80;0.80;;;18.30;24.40;;;;;;5042256;28;20205;-86
2022/12/31 11:03:19;;;;;;;0.80;0.80;;;18.30;24.90;;;;;;5042359;28;20198;-85
2022/12/31 11:06:26;;;;;;;2.38;1.05;;;18.10;25.40;;;;;;5042510;28;20272;-85
2022/12/31 11:09:34;;;;;;;0.93;0.77;;;17.90;26.00;;;;;;5037777;28;20662;-85
2022/12/31 11:12:10;;;;;;;0.73;0.73;;;17.80;26.50;;;;;;5043182;28;20201;-85
2022/12/31 11:14:54;;;;;;;1.02;0.93;;;17.80;26.70;;;;;;5043515;28;20198;-86
2022/12/31 11:17:43;;;;;;;0.85;0.77;;;17.80;26.80;;;;;;5039893;28;20294;-85
2022/12/31 11:20:41;;;;;;;0.90;0.90;;;17.80;26.90;;;;;;5044657;28;20458;-86
2022/12/31 11:23:18;;;;;;;1.00;1.00;;;17.80;26.70;;;;;;5043771;28;20221;-86
2022/12/31 11:25:54;;;;;;;2.47;1.02;;;17.80;26.70;;;;;;5042641;28;20197;-85
2022/12/31 11:28:50;;;;;;;1.17;1.08;;;17.80;26.70;;;;;;5039294;28;20562;-86
2022/12/31 11:31:49;;;;;;;1.02;1.00;;;17.80;26.70;;;;;;5037998;28;20198;-85
2022/12/31 11:34:47;;;;;;;0.85;0.85;;;17.90;26.20;;;;;;5033640;28;20203;-85
2022/12/31 11:37:29;;;;;;;1.00;1.00;;;18.10;26.40;;;;;;5042768;28;20206;-85
2022/12/31 11:40:09;;;;;;;1.80;1.70;;;18.10;26.60;;;;;;5041542;28;20252;-85
2022/12/31 11:42:45;;;;;;;6.93;5.82;;;18.20;25.80;;;;;;5039814;28;20669;-85
2022/12/31 11:45:17;;;;;;;1.40;1.25;;;18.30;26.00;;;;;;5039407;28;20202;-86
2022/12/31 11:47:54;;;;;;;1.33;1.20;;;18.40;25.90;;;;;;5042415;28;20230;-86
2022/12/31 11:50:30;;;;;;;1.00;0.80;;;18.50;25.60;;;;;;5042825;28;20612;-85
2022/12/31 11:53:11;;;;;;;1.15;1.05;;;18.60;24.70;;;;;;5037701;28;20202;-85
2022/12/31 11:55:47;;;;;;;9.85;7.25;;;18.80;24.40;;;;;;5047776;28;20210;-83
2022/12/31 11:58:17;;;;;;;1.23;1.13;;;18.80;25.20;;;;;;5043704;28;20461;-83
2022/12/31 12:00:51;;;;;;;1.40;1.30;;;18.90;24.50;;;;;;5038857;28;20351;-84
2022/12/31 12:03:18;;;;;;;2.85;2.53;;;19.00;23.80;;;;;;5045134;28;20198;-83
2022/12/31 12:05:47;;;;;;;2.03;1.83;;;19.10;24.10;;;;;;5041556;28;20227;-83
2022/12/31 12:08:15;;;;;;;2.03;1.58;;;19.10;23.60;;;;;;5043415;28;20229;-83
2022/12/31 12:10:45;;;;;;;1.73;1.10;;;19.30;24.20;;;;;;5042083;28;20230;-83
2022/12/31 12:13:19;;;;;;;1.10;1.00;;;19.30;23.50;;;;;;5039150;28;20220;-84
2022/12/31 12:15:49;;;;;;;2.05;1.80;;;19.30;23.20;;;;;;5042172;28;20203;-84
2022/12/31 12:18:30;;;;;;;1.40;1.30;;;19.30;23.80;;;;;;5039430;28;20665;-84
2022/12/31 12:21:16;;;;;;;1.30;1.20;;;19.30;23.50;;;;;;5046959;28;20662;-84
2022/12/31 12:23:54;;;;;;;1.00;1.00;;;19.30;23.30;;;;;;5042959;28;20237;-84
2022/12/31 12:26:33;;;;;;;3.38;2.03;;;19.30;23.00;;;;;;5037286;28;20228;-84
2022/12/31 12:29:09;;;;;;;1.60;1.23;;;19.30;24.00;;;;;;5040756;28;20251;-84
2022/12/31 12:31:36;;;;;;;1.25;1.08;;;19.30;23.60;;;;;;5041739;28;20201;-84
2022/12/31 12:34:04;;;;;;;1.02;1.02;;;19.30;22.80;;;;;;5046102;28;20189;-84
2022/12/31 12:36:32;;;;;;;1.05;1.05;;;19.50;21.90;;;;;;5033611;28;20202;-83
2022/12/31 12:39:03;;;;;;;1.33;1.23;;;19.60;23.00;;;;;;5044770;28;20321;-85
2022/12/31 12:41:30;;;;;;;0.93;0.90;;;19.50;22.80;;;;;;5036322;28;20202;-86
2022/12/31 12:44:06;;;;;;;2.25;1.00;;;19.50;23.10;;;;;;5044527;28;20658;-86
2022/12/31 12:46:35;;;;;;;0.80;0.80;;;19.40;22.30;;;;;;5043092;28;20209;-85
2022/12/31 12:49:02;;;;;;;0.90;0.90;;;19.30;22.90;;;;;;5041434;28;20198;-85
2022/12/31 12:51:49;;;;;;;1.02;0.90;;;19.40;22.80;;;;;;5040168;28;20199;-85
2022/12/31 12:54:30;;;;;;;1.13;0.80;;;19.30;23.00;;;;;;5040458;28;20208;-86
2022/12/31 12:57:05;;;;;;;1.38;1.10;;;19.20;22.90;;;;;;5044153;28;20202;-86
2022/12/31 12:59:57;;;;;;;1.20;1.10;;;19.20;23.10;;;;;;5037273;28;20252;-85
2022/12/31 13:02:59;;;;;;;0.75;0.75;;;19.10;23.10;;;;;;5042166;28;20194;-85
2022/12/31 13:05:41;;;;;;;0.80;0.80;;;19.20;22.90;;;;;;5046267;28;20583;-86
2022/12/31 13:08:21;;;;;;;0.80;0.80;;;19.10;22.90;;;;;;5042051;28;20261;-86
2022/12/31 13:10:58;;;;;;;1.33;1.00;;;19.00;23.00;;;;;;5040719;28;20229;-86
2022/12/31 13:13:33;;;;;;;0.90;0.90;;;18.90;23.10;;;;;;5043058;28;20585;-85
2022/12/31 13:16:06;;;;;;;1.33;1.00;;;18.90;23.60;;;;;;5038182;28;20209;-86
2022/12/31 13:18:46;;;;;;;0.90;0.90;;;18.80;23.50;;;;;;5039042;28;20210;-86
2022/12/31 13:21:44;;;;;;;1.13;1.02;;;18.80;23.70;;;;;;5040636;28;20199;-86
2022/12/31 13:24:23;;;;;;;1.20;0.90;;;18.70;24.00;;;;;;5035318;28;20227;-86
2022/12/31 13:26:56;;;;;;;1.30;1.20;;;18.70;24.20;;;;;;5040358;28;20225;-86
2022/12/31 13:29:27;;;;;;;1.20;1.10;;;18.60;24.10;;;;;;5037778;28;20201;-86
2022/12/31 13:31:56;;;;;;;1.98;1.20;;;18.60;24.40;;;;;;5047106;28;20296;-86
2022/12/31 13:34:28;;;;;;;2.67;1.40;;;18.50;24.20;;;;;;5035175;28;20199;-85
2022/12/31 13:37:02;;;;;;;4.88;1.17;;;18.40;24.20;;;;;;5041064;28;20228;-86
2022/12/31 13:39:33;;;;;;;2.15;1.58;;;18.40;24.50;;;;;;5045282;28;20194;-86
2022/12/31 13:42:08;;;;;;;1.77;1.50;;;18.50;25.80;;;;;;5042754;28;20646;-85